sensor_id;sensor_type;location;lat;lon;timestamp;P1;durP1;ratioP1;P2;durP2;ratioP2
67889;SDS011;54685;52.082;5.426;2023-03-26T00:01:09;17.05;;;3.78;;
67889;SDS011;54685;52.082;5.426;2023-03-26T00:03:41;25.55;;;4.75;;
67889;SDS011;54685;52.082;5.426;2023-03-26T00:06:12;24.20;;;3.47;;
67889;SDS011;54685;52.082;5.426;2023-03-26T00:08:41;19.45;;;3.47;;
67889;SDS011;54685;52.082;5.426;2023-03-26T00:11:10;25.00;;;3.67;;
67889;SDS011;54685;52.082;5.426;2023-03-26T00:13:40;22.08;;;3.40;;
67889;SDS011;54685;52.082;5.426;2023-03-26T00:16:09;30.27;;;3.90;;
67889;SDS011;54685;52.082;5.426;2023-03-26T00:18:42;19.08;;;2.83;;
67889;SDS011;54685;52.082;5.426;2023-03-26T00:21:11;17.80;;;3.65;;
67889;SDS011;54685;52.082;5.426;2023-03-26T00:23:40;24.13;;;3.28;;
67889;SDS011;54685;52.082;5.426;2023-03-26T00:26:07;20.55;;;3.25;;
67889;SDS011;54685;52.082;5.426;2023-03-26T00:28:36;21.90;;;3.05;;
67889;SDS011;54685;52.082;5.426;2023-03-26T00:31:07;25.73;;;3.50;;
67889;SDS011;54685;52.082;5.426;2023-03-26T00:33:39;37.90;;;4.35;;
67889;SDS011;54685;52.082;5.426;2023-03-26T00:36:08;19.33;;;4.00;;
67889;SDS011;54685;52.082;5.426;2023-03-26T00:38:40;31.55;;;3.60;;
67889;SDS011;54685;52.082;5.426;2023-03-26T00:41:08;36.92;;;4.57;;
67889;SDS011;54685;52.082;5.426;2023-03-26T00:43:44;25.17;;;3.53;;
67889;SDS011;54685;52.082;5.426;2023-03-26T00:46:14;32.25;;;4.18;;
67889;SDS011;54685;52.082;5.426;2023-03-26T00:48:43;33.03;;;3.88;;
67889;SDS011;54685;52.082;5.426;2023-03-26T00:51:12;23.25;;;3.40;;
67889;SDS011;54685;52.082;5.426;2023-03-26T00:53:41;27.98;;;4.22;;
67889;SDS011;54685;52.082;5.426;2023-03-26T00:56:10;33.65;;;4.50;;
67889;SDS011;54685;52.082;5.426;2023-03-26T00:58:37;29.83;;;4.18;;
67889;SDS011;54685;52.082;5.426;2023-03-26T01:01:06;28.95;;;4.30;;
67889;SDS011;54685;52.082;5.426;2023-03-26T01:03:35;35.00;;;4.88;;
67889;SDS011;54685;52.082;5.426;2023-03-26T01:06:04;30.25;;;4.35;;
67889;SDS011;54685;52.082;5.426;2023-03-26T01:08:41;29.73;;;4.57;;
67889;SDS011;54685;52.082;5.426;2023-03-26T01:11:15;40.10;;;4.78;;
67889;SDS011;54685;52.082;5.426;2023-03-26T01:16:54;40.08;;;4.97;;
67889;SDS011;54685;52.082;5.426;2023-03-26T01:22:14;35.47;;;5.43;;
67889;SDS011;54685;52.082;5.426;2023-03-26T01:24:46;42.10;;;6.82;;
67889;SDS011;54685;52.082;5.426;2023-03-26T01:29:54;55.03;;;16.27;;
67889;SDS011;54685;52.082;5.426;2023-03-26T01:35:44;55.60;;;13.80;;
67889;SDS011;54685;52.082;5.426;2023-03-26T01:38:37;65.78;;;12.18;;
67889;SDS011;54685;52.082;5.426;2023-03-26T01:44:02;49.42;;;6.75;;
67889;SDS011;54685;52.082;5.426;2023-03-26T01:46:35;40.60;;;6.80;;
67889;SDS011;54685;52.082;5.426;2023-03-26T01:49:03;50.72;;;6.30;;
67889;SDS011;54685;52.082;5.426;2023-03-26T01:51:34;50.38;;;6.38;;
67889;SDS011;54685;52.082;5.426;2023-03-26T01:54:02;53.20;;;6.25;;
67889;SDS011;54685;52.082;5.426;2023-03-26T02:02:41;49.63;;;5.63;;
67889;SDS011;54685;52.082;5.426;2023-03-26T02:05:17;49.70;;;5.20;;
67889;SDS011;54685;52.082;5.426;2023-03-26T02:07:49;40.25;;;4.97;;
67889;SDS011;54685;52.082;5.426;2023-03-26T02:10:43;42.38;;;5.55;;
67889;SDS011;54685;52.082;5.426;2023-03-26T02:13:15;60.47;;;6.35;;
67889;SDS011;54685;52.082;5.426;2023-03-26T02:15:53;56.38;;;5.82;;
67889;SDS011;54685;52.082;5.426;2023-03-26T02:18:28;35.17;;;5.00;;
67889;SDS011;54685;52.082;5.426;2023-03-26T02:21:03;58.15;;;6.40;;
67889;SDS011;54685;52.082;5.426;2023-03-26T02:23:31;42.75;;;5.78;;
67889;SDS011;54685;52.082;5.426;2023-03-26T02:26:04;58.58;;;6.25;;
67889;SDS011;54685;52.082;5.426;2023-03-26T02:28:34;51.85;;;5.80;;
67889;SDS011;54685;52.082;5.426;2023-03-26T02:31:02;56.40;;;6.18;;
67889;SDS011;54685;52.082;5.426;2023-03-26T02:33:30;44.38;;;6.25;;
67889;SDS011;54685;52.082;5.426;2023-03-26T02:35:58;50.80;;;6.38;;
67889;SDS011;54685;52.082;5.426;2023-03-26T02:38:28;51.78;;;6.78;;
67889;SDS011;54685;52.082;5.426;2023-03-26T02:41:02;47.10;;;6.17;;
67889;SDS011;54685;52.082;5.426;2023-03-26T02:43:44;46.33;;;6.45;;
67889;SDS011;54685;52.082;5.426;2023-03-26T02:46:14;44.42;;;6.55;;
67889;SDS011;54685;52.082;5.426;2023-03-26T02:48:53;59.58;;;7.00;;
67889;SDS011;54685;52.082;5.426;2023-03-26T02:51:23;47.35;;;6.43;;
67889;SDS011;54685;52.082;5.426;2023-03-26T02:54:14;53.92;;;6.80;;
67889;SDS011;54685;52.082;5.426;2023-03-26T02:57:00;39.50;;;6.30;;
67889;SDS011;54685;52.082;5.426;2023-03-26T02:59:59;56.50;;;6.65;;
67889;SDS011;54685;52.082;5.426;2023-03-26T03:02:36;48.13;;;7.15;;
67889;SDS011;54685;52.082;5.426;2023-03-26T03:05:22;59.17;;;7.20;;
67889;SDS011;54685;52.082;5.426;2023-03-26T03:08:09;48.38;;;7.85;;
67889;SDS011;54685;52.082;5.426;2023-03-26T03:10:43;43.95;;;7.35;;
67889;SDS011;54685;52.082;5.426;2023-03-26T03:13:29;41.35;;;7.35;;
67889;SDS011;54685;52.082;5.426;2023-03-26T03:15:56;40.92;;;7.80;;
67889;SDS011;54685;52.082;5.426;2023-03-26T03:18:23;55.78;;;8.35;;
67889;SDS011;54685;52.082;5.426;2023-03-26T03:20:50;39.50;;;7.80;;
67889;SDS011;54685;52.082;5.426;2023-03-26T03:23:19;54.88;;;8.80;;
67889;SDS011;54685;52.082;5.426;2023-03-26T03:25:48;47.10;;;8.80;;
67889;SDS011;54685;52.082;5.426;2023-03-26T03:28:17;59.25;;;9.32;;
67889;SDS011;54685;52.082;5.426;2023-03-26T03:30:45;58.22;;;10.57;;
67889;SDS011;54685;52.082;5.426;2023-03-26T03:33:26;59.30;;;10.02;;
67889;SDS011;54685;52.082;5.426;2023-03-26T03:35:52;46.97;;;10.05;;
67889;SDS011;54685;52.082;5.426;2023-03-26T03:38:20;53.90;;;10.13;;
67889;SDS011;54685;52.082;5.426;2023-03-26T03:40:49;54.80;;;9.50;;
67889;SDS011;54685;52.082;5.426;2023-03-26T03:43:16;50.80;;;11.30;;
67889;SDS011;54685;52.082;5.426;2023-03-26T03:45:59;40.80;;;9.15;;
67889;SDS011;54685;52.082;5.426;2023-03-26T03:48:32;48.75;;;9.27;;
67889;SDS011;54685;52.082;5.426;2023-03-26T03:51:04;63.45;;;10.70;;
67889;SDS011;54685;52.082;5.426;2023-03-26T03:53:45;50.10;;;10.00;;
67889;SDS011;54685;52.082;5.426;2023-03-26T03:56:16;45.53;;;8.43;;
67889;SDS011;54685;52.082;5.426;2023-03-26T03:59:04;55.55;;;10.07;;
67889;SDS011;54685;52.082;5.426;2023-03-26T04:01:33;51.72;;;10.85;;
67889;SDS011;54685;52.082;5.426;2023-03-26T04:04:05;50.25;;;9.20;;
67889;SDS011;54685;52.082;5.426;2023-03-26T04:06:44;53.13;;;10.25;;
67889;SDS011;54685;52.082;5.426;2023-03-26T04:09:13;49.63;;;9.45;;
67889;SDS011;54685;52.082;5.426;2023-03-26T04:11:41;58.55;;;10.68;;
67889;SDS011;54685;52.082;5.426;2023-03-26T04:14:27;56.95;;;9.75;;
67889;SDS011;54685;52.082;5.426;2023-03-26T04:16:57;48.13;;;9.68;;
67889;SDS011;54685;52.082;5.426;2023-03-26T04:19:25;53.78;;;11.07;;
67889;SDS011;54685;52.082;5.426;2023-03-26T04:21:52;52.53;;;10.48;;
67889;SDS011;54685;52.082;5.426;2023-03-26T04:24:20;55.17;;;11.07;;
67889;SDS011;54685;52.082;5.426;2023-03-26T04:27:24;39.33;;;9.90;;
67889;SDS011;54685;52.082;5.426;2023-03-26T04:30:17;56.97;;;11.48;;
67889;SDS011;54685;52.082;5.426;2023-03-26T04:32:52;56.38;;;11.27;;
67889;SDS011;54685;52.082;5.426;2023-03-26T04:35:19;53.60;;;11.55;;
67889;SDS011;54685;52.082;5.426;2023-03-26T04:37:51;45.08;;;11.32;;
67889;SDS011;54685;52.082;5.426;2023-03-26T04:40:27;57.25;;;11.35;;
67889;SDS011;54685;52.082;5.426;2023-03-26T04:43:10;55.38;;;11.75;;
67889;SDS011;54685;52.082;5.426;2023-03-26T04:45:58;54.55;;;11.15;;
67889;SDS011;54685;52.082;5.426;2023-03-26T04:48:31;50.78;;;11.18;;
67889;SDS011;54685;52.082;5.426;2023-03-26T04:50:58;49.03;;;11.90;;
67889;SDS011;54685;52.082;5.426;2023-03-26T04:53:25;49.70;;;12.13;;
67889;SDS011;54685;52.082;5.426;2023-03-26T04:56:13;52.08;;;11.80;;
67889;SDS011;54685;52.082;5.426;2023-03-26T04:58:59;47.97;;;10.93;;
67889;SDS011;54685;52.082;5.426;2023-03-26T05:01:31;42.37;;;11.07;;
67889;SDS011;54685;52.082;5.426;2023-03-26T05:03:58;54.05;;;11.60;;
67889;SDS011;54685;52.082;5.426;2023-03-26T05:06:27;62.30;;;11.88;;
67889;SDS011;54685;52.082;5.426;2023-03-26T05:08:54;53.88;;;12.30;;
67889;SDS011;54685;52.082;5.426;2023-03-26T05:11:41;45.70;;;10.80;;
67889;SDS011;54685;52.082;5.426;2023-03-26T05:14:08;47.33;;;11.70;;
67889;SDS011;54685;52.082;5.426;2023-03-26T05:16:35;58.25;;;12.10;;
67889;SDS011;54685;52.082;5.426;2023-03-26T05:19:06;51.15;;;12.68;;
67889;SDS011;54685;52.082;5.426;2023-03-26T05:21:34;49.58;;;10.95;;
67889;SDS011;54685;52.082;5.426;2023-03-26T05:24:01;47.05;;;11.70;;
67889;SDS011;54685;52.082;5.426;2023-03-26T05:26:28;50.03;;;11.32;;
67889;SDS011;54685;52.082;5.426;2023-03-26T05:28:55;51.75;;;11.10;;
67889;SDS011;54685;52.082;5.426;2023-03-26T05:31:28;47.70;;;11.43;;
67889;SDS011;54685;52.082;5.426;2023-03-26T05:33:59;50.50;;;11.43;;
67889;SDS011;54685;52.082;5.426;2023-03-26T05:36:27;38.63;;;10.88;;
67889;SDS011;54685;52.082;5.426;2023-03-26T05:39:15;54.35;;;12.00;;
67889;SDS011;54685;52.082;5.426;2023-03-26T05:42:11;53.80;;;11.00;;
67889;SDS011;54685;52.082;5.426;2023-03-26T05:44:55;59.15;;;12.10;;
67889;SDS011;54685;52.082;5.426;2023-03-26T05:47:25;45.15;;;10.13;;
67889;SDS011;54685;52.082;5.426;2023-03-26T05:49:53;51.85;;;10.88;;
67889;SDS011;54685;52.082;5.426;2023-03-26T05:52:20;35.75;;;8.90;;
67889;SDS011;54685;52.082;5.426;2023-03-26T05:55:13;45.28;;;9.68;;
67889;SDS011;54685;52.082;5.426;2023-03-26T05:58:09;45.70;;;9.38;;
67889;SDS011;54685;52.082;5.426;2023-03-26T06:01:11;44.70;;;9.45;;
67889;SDS011;54685;52.082;5.426;2023-03-26T06:04:14;53.40;;;9.93;;
67889;SDS011;54685;52.082;5.426;2023-03-26T06:07:01;44.67;;;9.27;;
67889;SDS011;54685;52.082;5.426;2023-03-26T06:09:29;47.67;;;10.48;;
67889;SDS011;54685;52.082;5.426;2023-03-26T06:11:57;47.67;;;10.32;;
67889;SDS011;54685;52.082;5.426;2023-03-26T06:14:24;58.78;;;11.52;;
67889;SDS011;54685;52.082;5.426;2023-03-26T06:17:05;44.72;;;10.77;;
67889;SDS011;54685;52.082;5.426;2023-03-26T06:19:55;44.45;;;10.15;;
67889;SDS011;54685;52.082;5.426;2023-03-26T06:22:31;40.88;;;9.52;;
67889;SDS011;54685;52.082;5.426;2023-03-26T06:25:16;34.47;;;8.32;;
67889;SDS011;54685;52.082;5.426;2023-03-26T06:28:12;36.00;;;8.20;;
67889;SDS011;54685;52.082;5.426;2023-03-26T06:31:09;53.92;;;8.50;;
67889;SDS011;54685;52.082;5.426;2023-03-26T06:33:48;38.63;;;8.60;;
67889;SDS011;54685;52.082;5.426;2023-03-26T06:36:15;40.45;;;7.30;;
67889;SDS011;54685;52.082;5.426;2023-03-26T06:38:42;46.30;;;7.97;;
67889;SDS011;54685;52.082;5.426;2023-03-26T06:41:09;30.58;;;6.28;;
67889;SDS011;54685;52.082;5.426;2023-03-26T06:44:15;39.58;;;7.47;;
67889;SDS011;54685;52.082;5.426;2023-03-26T06:47:00;31.90;;;6.82;;
67889;SDS011;54685;52.082;5.426;2023-03-26T06:49:56;24.75;;;6.20;;
67889;SDS011;54685;52.082;5.426;2023-03-26T06:52:45;36.35;;;6.53;;
67889;SDS011;54685;52.082;5.426;2023-03-26T06:55:22;32.72;;;6.43;;
67889;SDS011;54685;52.082;5.426;2023-03-26T06:58:10;26.67;;;6.13;;
67889;SDS011;54685;52.082;5.426;2023-03-26T07:00:58;41.70;;;6.72;;
67889;SDS011;54685;52.082;5.426;2023-03-26T07:03:43;41.22;;;6.95;;
67889;SDS011;54685;52.082;5.426;2023-03-26T07:06:29;37.50;;;6.30;;
67889;SDS011;54685;52.082;5.426;2023-03-26T07:09:16;35.28;;;6.05;;
67889;SDS011;54685;52.082;5.426;2023-03-26T07:12:01;39.72;;;6.85;;
67889;SDS011;54685;52.082;5.426;2023-03-26T07:14:46;33.72;;;6.55;;
67889;SDS011;54685;52.082;5.426;2023-03-26T07:17:36;34.95;;;6.47;;
67889;SDS011;54685;52.082;5.426;2023-03-26T07:20:12;36.60;;;6.63;;
67889;SDS011;54685;52.082;5.426;2023-03-26T07:22:40;39.00;;;7.05;;
67889;SDS011;54685;52.082;5.426;2023-03-26T07:25:32;36.35;;;7.13;;
67889;SDS011;54685;52.082;5.426;2023-03-26T07:28:33;30.30;;;6.53;;
67889;SDS011;54685;52.082;5.426;2023-03-26T07:33:57;39.78;;;7.80;;
67889;SDS011;54685;52.082;5.426;2023-03-26T07:37:00;52.22;;;8.65;;
67889;SDS011;54685;52.082;5.426;2023-03-26T07:46:03;36.72;;;7.72;;
67889;SDS011;54685;52.082;5.426;2023-03-26T07:48:57;40.17;;;8.18;;
67889;SDS011;54685;52.082;5.426;2023-03-26T07:51:58;45.22;;;8.18;;
67889;SDS011;54685;52.082;5.426;2023-03-26T07:54:47;41.22;;;8.73;;
67889;SDS011;54685;52.082;5.426;2023-03-26T08:03:12;46.13;;;9.50;;
67889;SDS011;54685;52.082;5.426;2023-03-26T08:06:12;58.15;;;9.48;;
67889;SDS011;54685;52.082;5.426;2023-03-26T08:09:02;49.53;;;10.20;;
67889;SDS011;54685;52.082;5.426;2023-03-26T08:12:05;39.88;;;9.02;;
67889;SDS011;54685;52.082;5.426;2023-03-26T08:17:39;38.53;;;9.05;;
67889;SDS011;54685;52.082;5.426;2023-03-26T08:26:05;46.38;;;9.05;;
67889;SDS011;54685;52.082;5.426;2023-03-26T08:28:59;35.83;;;9.40;;
67889;SDS011;54685;52.082;5.426;2023-03-26T08:31:32;45.83;;;9.93;;
67889;SDS011;54685;52.082;5.426;2023-03-26T08:34:01;39.85;;;9.20;;
67889;SDS011;54685;52.082;5.426;2023-03-26T08:36:28;48.03;;;9.90;;
67889;SDS011;54685;52.082;5.426;2023-03-26T08:38:55;43.58;;;9.60;;
67889;SDS011;54685;52.082;5.426;2023-03-26T08:47:27;37.83;;;9.77;;
67889;SDS011;54685;52.082;5.426;2023-03-26T08:50:09;42.60;;;12.07;;
67889;SDS011;54685;52.082;5.426;2023-03-26T08:59:02;40.28;;;10.55;;
67889;SDS011;54685;52.082;5.426;2023-03-26T09:10:59;39.60;;;11.13;;
67889;SDS011;54685;52.082;5.426;2023-03-26T09:13:38;40.03;;;13.25;;
67889;SDS011;54685;52.082;5.426;2023-03-26T09:19:37;46.13;;;14.88;;
67889;SDS011;54685;52.082;5.426;2023-03-26T09:35:37;43.80;;;15.50;;
67889;SDS011;54685;52.082;5.426;2023-03-26T09:41:13;49.15;;;16.13;;
67889;SDS011;54685;52.082;5.426;2023-03-26T09:43:55;52.83;;;16.60;;
67889;SDS011;54685;52.082;5.426;2023-03-26T09:49:37;50.17;;;16.13;;
67889;SDS011;54685;52.082;5.426;2023-03-26T09:55:21;36.83;;;15.68;;
67889;SDS011;54685;52.082;5.426;2023-03-26T10:00:59;37.75;;;15.85;;
67889;SDS011;54685;52.082;5.426;2023-03-26T10:03:37;32.20;;;14.38;;
67889;SDS011;54685;52.082;5.426;2023-03-26T10:09:01;36.67;;;13.60;;
67889;SDS011;54685;52.082;5.426;2023-03-26T10:14:23;37.38;;;13.05;;
67889;SDS011;54685;52.082;5.426;2023-03-26T10:25:13;40.10;;;13.68;;
67889;SDS011;54685;52.082;5.426;2023-03-26T10:30:53;30.27;;;10.70;;
67889;SDS011;54685;52.082;5.426;2023-03-26T10:41:39;28.80;;;10.50;;
67889;SDS011;54685;52.082;5.426;2023-03-26T10:45:07;21.25;;;9.50;;
67889;SDS011;54685;52.082;5.426;2023-03-26T10:52:36;21.30;;;9.13;;
67889;SDS011;54685;52.082;5.426;2023-03-26T10:55:12;22.17;;;8.25;;
67889;SDS011;54685;52.082;5.426;2023-03-26T10:57:53;20.42;;;8.65;;
67889;SDS011;54685;52.082;5.426;2023-03-26T11:00:25;18.73;;;7.22;;
67889;SDS011;54685;52.082;5.426;2023-03-26T11:14:02;18.08;;;7.18;;
67889;SDS011;54685;52.082;5.426;2023-03-26T11:22:20;20.88;;;6.40;;
67889;SDS011;54685;52.082;5.426;2023-03-26T11:25:00;20.73;;;5.90;;
67889;SDS011;54685;52.082;5.426;2023-03-26T11:33:25;25.88;;;6.18;;
67889;SDS011;54685;52.082;5.426;2023-03-26T11:36:00;25.10;;;5.28;;
67889;SDS011;54685;52.082;5.426;2023-03-26T11:38:33;27.33;;;5.20;;
67889;SDS011;54685;52.082;5.426;2023-03-26T11:41:10;21.70;;;4.80;;
67889;SDS011;54685;52.082;5.426;2023-03-26T11:44:18;26.38;;;5.57;;
67889;SDS011;54685;52.082;5.426;2023-03-26T11:46:51;25.00;;;4.97;;
67889;SDS011;54685;52.082;5.426;2023-03-26T11:49:26;20.40;;;4.95;;
67889;SDS011;54685;52.082;5.426;2023-03-26T11:51:54;19.98;;;4.90;;
67889;SDS011;54685;52.082;5.426;2023-03-26T11:54:21;22.90;;;5.90;;
67889;SDS011;54685;52.082;5.426;2023-03-26T11:57:05;21.67;;;4.93;;
67889;SDS011;54685;52.082;5.426;2023-03-26T11:59:40;19.38;;;4.60;;
67889;SDS011;54685;52.082;5.426;2023-03-26T12:02:24;18.75;;;4.25;;
67889;SDS011;54685;52.082;5.426;2023-03-26T12:05:09;28.42;;;5.10;;
67889;SDS011;54685;52.082;5.426;2023-03-26T12:07:41;21.45;;;4.10;;
67889;SDS011;54685;52.082;5.426;2023-03-26T12:13:00;28.90;;;7.18;;
67889;SDS011;54685;52.082;5.426;2023-03-26T12:15:31;37.22;;;15.00;;
67889;SDS011;54685;52.082;5.426;2023-03-26T12:17:59;24.80;;;5.10;;
67889;SDS011;54685;52.082;5.426;2023-03-26T12:20:45;38.03;;;10.70;;
67889;SDS011;54685;52.082;5.426;2023-03-26T12:23:36;27.00;;;5.85;;
67889;SDS011;54685;52.082;5.426;2023-03-26T12:26:20;33.85;;;5.32;;
67889;SDS011;54685;52.082;5.426;2023-03-26T12:29:13;21.35;;;4.60;;
67889;SDS011;54685;52.082;5.426;2023-03-26T12:31:44;23.33;;;7.75;;
67889;SDS011;54685;52.082;5.426;2023-03-26T12:34:19;24.40;;;4.72;;
67889;SDS011;54685;52.082;5.426;2023-03-26T12:36:49;27.33;;;5.57;;
67889;SDS011;54685;52.082;5.426;2023-03-26T12:42:32;19.02;;;4.05;;
67889;SDS011;54685;52.082;5.426;2023-03-26T12:48:40;21.85;;;3.60;;
67889;SDS011;54685;52.082;5.426;2023-03-26T12:56:19;24.70;;;5.03;;
67889;SDS011;54685;52.082;5.426;2023-03-26T13:07:16;19.73;;;3.33;;
67889;SDS011;54685;52.082;5.426;2023-03-26T13:10:21;17.35;;;3.90;;
67889;SDS011;54685;52.082;5.426;2023-03-26T13:13:17;16.77;;;3.05;;
67889;SDS011;54685;52.082;5.426;2023-03-26T13:16:24;17.65;;;3.15;;
67889;SDS011;54685;52.082;5.426;2023-03-26T13:19:05;16.60;;;3.00;;
67889;SDS011;54685;52.082;5.426;2023-03-26T13:22:00;17.63;;;2.67;;
67889;SDS011;54685;52.082;5.426;2023-03-26T13:27:29;15.70;;;3.20;;
67889;SDS011;54685;52.082;5.426;2023-03-26T13:44:00;12.82;;;1.98;;
67889;SDS011;54685;52.082;5.426;2023-03-26T13:46:39;15.82;;;2.78;;
67889;SDS011;54685;52.082;5.426;2023-03-26T13:49:11;11.95;;;2.25;;
67889;SDS011;54685;52.082;5.426;2023-03-26T13:54:54;16.63;;;2.53;;
67889;SDS011;54685;52.082;5.426;2023-03-26T13:57:34;17.83;;;2.83;;
67889;SDS011;54685;52.082;5.426;2023-03-26T14:02:38;14.68;;;2.85;;
67889;SDS011;54685;52.082;5.426;2023-03-26T14:07:51;18.77;;;3.38;;
67889;SDS011;54685;52.082;5.426;2023-03-26T14:10:34;13.75;;;2.97;;
67889;SDS011;54685;52.082;5.426;2023-03-26T14:15:46;15.80;;;2.25;;
67889;SDS011;54685;52.082;5.426;2023-03-26T14:46:19;17.02;;;4.53;;
67889;SDS011;54685;52.082;5.426;2023-03-26T14:51:57;7.60;;;1.35;;
67889;SDS011;54685;52.082;5.426;2023-03-26T14:54:32;9.90;;;2.33;;
67889;SDS011;54685;52.082;5.426;2023-03-26T14:57:21;13.07;;;2.22;;
67889;SDS011;54685;52.082;5.426;2023-03-26T15:08:26;17.85;;;2.60;;
67889;SDS011;54685;52.082;5.426;2023-03-26T15:11:20;14.07;;;2.90;;
67889;SDS011;54685;52.082;5.426;2023-03-26T15:25:39;13.85;;;2.25;;
67889;SDS011;54685;52.082;5.426;2023-03-26T15:34:52;11.60;;;2.13;;
67889;SDS011;54685;52.082;5.426;2023-03-26T15:40:46;11.65;;;3.17;;
67889;SDS011;54685;52.082;5.426;2023-03-26T15:43:25;12.40;;;2.28;;
67889;SDS011;54685;52.082;5.426;2023-03-26T15:49:05;9.45;;;2.75;;
67889;SDS011;54685;52.082;5.426;2023-03-26T16:00:22;12.07;;;3.08;;
67889;SDS011;54685;52.082;5.426;2023-03-26T16:03:02;18.40;;;3.80;;
67889;SDS011;54685;52.082;5.426;2023-03-26T16:11:41;12.95;;;2.75;;
67889;SDS011;54685;52.082;5.426;2023-03-26T16:14:15;17.30;;;2.55;;
67889;SDS011;54685;52.082;5.426;2023-03-26T16:22:00;18.35;;;2.47;;
67889;SDS011;54685;52.082;5.426;2023-03-26T16:24:31;13.23;;;2.35;;
67889;SDS011;54685;52.082;5.426;2023-03-26T16:27:01;15.32;;;3.00;;
67889;SDS011;54685;52.082;5.426;2023-03-26T16:30:01;11.98;;;1.80;;
67889;SDS011;54685;52.082;5.426;2023-03-26T16:32:25;10.20;;;1.83;;
67889;SDS011;54685;52.082;5.426;2023-03-26T16:35:01;14.23;;;2.50;;
67889;SDS011;54685;52.082;5.426;2023-03-26T16:37:48;11.30;;;1.65;;
67889;SDS011;54685;52.082;5.426;2023-03-26T16:57:10;7.93;;;1.60;;
67889;SDS011;54685;52.082;5.426;2023-03-26T17:00:18;11.85;;;2.10;;
67889;SDS011;54685;52.082;5.426;2023-03-26T17:17:44;9.02;;;1.60;;
67889;SDS011;54685;52.082;5.426;2023-03-26T17:23:34;8.13;;;1.23;;
67889;SDS011;54685;52.082;5.426;2023-03-26T17:37:09;8.35;;;1.42;;
67889;SDS011;54685;52.082;5.426;2023-03-26T17:42:24;11.75;;;1.90;;
67889;SDS011;54685;52.082;5.426;2023-03-26T17:45:00;4.90;;;1.38;;
67889;SDS011;54685;52.082;5.426;2023-03-26T17:47:37;12.98;;;1.92;;
67889;SDS011;54685;52.082;5.426;2023-03-26T17:52:55;8.30;;;1.58;;
67889;SDS011;54685;52.082;5.426;2023-03-26T17:55:25;14.30;;;2.65;;
67889;SDS011;54685;52.082;5.426;2023-03-26T17:57:57;20.38;;;2.47;;
67889;SDS011;54685;52.082;5.426;2023-03-26T18:00:28;12.70;;;1.70;;
67889;SDS011;54685;52.082;5.426;2023-03-26T18:03:03;8.60;;;1.50;;
67889;SDS011;54685;52.082;5.426;2023-03-26T18:05:39;13.38;;;2.22;;
67889;SDS011;54685;52.082;5.426;2023-03-26T18:16:58;8.75;;;1.70;;
67889;SDS011;54685;52.082;5.426;2023-03-26T18:19:26;8.38;;;1.27;;
67889;SDS011;54685;52.082;5.426;2023-03-26T18:21:58;13.18;;;1.85;;
67889;SDS011;54685;52.082;5.426;2023-03-26T18:24:36;11.23;;;1.92;;
67889;SDS011;54685;52.082;5.426;2023-03-26T18:27:19;10.38;;;1.67;;
67889;SDS011;54685;52.082;5.426;2023-03-26T18:32:29;10.63;;;1.55;;
67889;SDS011;54685;52.082;5.426;2023-03-26T18:35:18;8.40;;;1.42;;
67889;SDS011;54685;52.082;5.426;2023-03-26T18:37:47;9.45;;;1.48;;
67889;SDS011;54685;52.082;5.426;2023-03-26T18:40:19;10.23;;;2.05;;
67889;SDS011;54685;52.082;5.426;2023-03-26T18:42:48;14.15;;;1.77;;
67889;SDS011;54685;52.082;5.426;2023-03-26T18:45:25;9.00;;;1.58;;
67889;SDS011;54685;52.082;5.426;2023-03-26T18:47:55;9.02;;;1.30;;
67889;SDS011;54685;52.082;5.426;2023-03-26T18:50:26;15.48;;;1.50;;
67889;SDS011;54685;52.082;5.426;2023-03-26T18:52:56;9.20;;;1.35;;
67889;SDS011;54685;52.082;5.426;2023-03-26T18:55:26;9.38;;;1.40;;
67889;SDS011;54685;52.082;5.426;2023-03-26T18:57:55;8.35;;;1.20;;
67889;SDS011;54685;52.082;5.426;2023-03-26T19:00:23;11.90;;;1.63;;
67889;SDS011;54685;52.082;5.426;2023-03-26T19:03:03;11.93;;;1.92;;
67889;SDS011;54685;52.082;5.426;2023-03-26T19:05:33;7.13;;;1.42;;
67889;SDS011;54685;52.082;5.426;2023-03-26T19:08:02;10.13;;;1.67;;
67889;SDS011;54685;52.082;5.426;2023-03-26T19:10:31;11.02;;;1.50;;
67889;SDS011;54685;52.082;5.426;2023-03-26T19:13:01;5.55;;;1.58;;
67889;SDS011;54685;52.082;5.426;2023-03-26T19:15:29;11.45;;;1.58;;
67889;SDS011;54685;52.082;5.426;2023-03-26T19:17:59;12.52;;;1.83;;
67889;SDS011;54685;52.082;5.426;2023-03-26T19:20:48;7.10;;;1.95;;
67889;SDS011;54685;52.082;5.426;2023-03-26T19:23:27;9.90;;;1.38;;
67889;SDS011;54685;52.082;5.426;2023-03-26T19:26:04;12.70;;;2.03;;
67889;SDS011;54685;52.082;5.426;2023-03-26T19:28:38;19.70;;;2.20;;
67889;SDS011;54685;52.082;5.426;2023-03-26T19:31:59;13.05;;;1.92;;
67889;SDS011;54685;52.082;5.426;2023-03-26T19:36:55;15.88;;;2.20;;
67889;SDS011;54685;52.082;5.426;2023-03-26T19:40:00;11.45;;;1.63;;
67889;SDS011;54685;52.082;5.426;2023-03-26T19:42:20;11.15;;;1.83;;
67889;SDS011;54685;52.082;5.426;2023-03-26T19:44:50;16.73;;;2.40;;
67889;SDS011;54685;52.082;5.426;2023-03-26T19:47:51;9.73;;;1.65;;
67889;SDS011;54685;52.082;5.426;2023-03-26T19:52:44;8.82;;;1.77;;
67889;SDS011;54685;52.082;5.426;2023-03-26T19:55:15;7.82;;;1.40;;
67889;SDS011;54685;52.082;5.426;2023-03-26T19:57:46;13.90;;;1.58;;
67889;SDS011;54685;52.082;5.426;2023-03-26T20:00:14;16.38;;;2.50;;
67889;SDS011;54685;52.082;5.426;2023-03-26T20:02:41;10.48;;;1.27;;
67889;SDS011;54685;52.082;5.426;2023-03-26T20:05:21;8.68;;;1.73;;
67889;SDS011;54685;52.082;5.426;2023-03-26T20:07:53;20.80;;;1.80;;
67889;SDS011;54685;52.082;5.426;2023-03-26T20:10:22;15.85;;;1.77;;
67889;SDS011;54685;52.082;5.426;2023-03-26T20:12:49;10.70;;;1.30;;
67889;SDS011;54685;52.082;5.426;2023-03-26T20:15:20;11.25;;;1.45;;
67889;SDS011;54685;52.082;5.426;2023-03-26T20:20:20;10.65;;;1.20;;
67889;SDS011;54685;52.082;5.426;2023-03-26T20:22:50;12.00;;;1.60;;
67889;SDS011;54685;52.082;5.426;2023-03-26T20:25:20;10.65;;;1.20;;
67889;SDS011;54685;52.082;5.426;2023-03-26T20:27:48;5.70;;;1.00;;
67889;SDS011;54685;52.082;5.426;2023-03-26T20:30:18;10.85;;;1.30;;
67889;SDS011;54685;52.082;5.426;2023-03-26T20:33:02;12.25;;;1.80;;
67889;SDS011;54685;52.082;5.426;2023-03-26T20:35:38;11.07;;;1.63;;
67889;SDS011;54685;52.082;5.426;2023-03-26T20:38:05;7.57;;;1.48;;
67889;SDS011;54685;52.082;5.426;2023-03-26T20:40:35;15.80;;;1.70;;
67889;SDS011;54685;52.082;5.426;2023-03-26T20:43:03;8.05;;;1.58;;
67889;SDS011;54685;52.082;5.426;2023-03-26T20:45:35;14.38;;;1.40;;
67889;SDS011;54685;52.082;5.426;2023-03-26T20:48:02;12.52;;;1.80;;
67889;SDS011;54685;52.082;5.426;2023-03-26T20:50:29;13.82;;;1.60;;
67889;SDS011;54685;52.082;5.426;2023-03-26T20:53:01;12.40;;;1.52;;
67889;SDS011;54685;52.082;5.426;2023-03-26T20:55:28;13.18;;;1.27;;
67889;SDS011;54685;52.082;5.426;2023-03-26T20:57:54;16.17;;;2.60;;
67889;SDS011;54685;52.082;5.426;2023-03-26T21:00:21;12.02;;;1.40;;
67889;SDS011;54685;52.082;5.426;2023-03-26T21:02:49;16.30;;;1.55;;
67889;SDS011;54685;52.082;5.426;2023-03-26T21:05:19;5.97;;;1.10;;
67889;SDS011;54685;52.082;5.426;2023-03-26T21:07:57;11.43;;;1.58;;
67889;SDS011;54685;52.082;5.426;2023-03-26T21:10:25;13.43;;;1.60;;
67889;SDS011;54685;52.082;5.426;2023-03-26T21:15:24;7.47;;;1.48;;
67889;SDS011;54685;52.082;5.426;2023-03-26T21:17:53;12.55;;;1.65;;
67889;SDS011;54685;52.082;5.426;2023-03-26T21:20:20;12.27;;;1.77;;
67889;SDS011;54685;52.082;5.426;2023-03-26T21:25:25;8.77;;;1.90;;